Time;durP1;ratioP1;P1;durP2;ratioP2;P2;SDS_P1;SDS_P2;PMS_P1;PMS_P2;Temp;Humidity;BMP_temperature;BMP_pressure;BME280_temperature;BME280_humidity;BME280_pressure;Samples;Min_cycle;Max_cycle;Signal;HPM_P1;HPM_P2
2022/03/18 00:01:53;;;;;;;14.40;5.90;;;7.40;99.90;;;;;;5054210;28;20199;-81
2022/03/18 00:04:18;;;;;;;6.80;4.07;;;7.30;99.90;;;;;;5054152;28;20206;-84
2022/03/18 00:06:44;;;;;;;6.72;3.92;;;7.30;99.90;;;;;;5054339;28;20254;-80
2022/03/18 00:09:09;;;;;;;12.77;4.35;;;7.10;99.90;;;;;;5053735;28;20625;-79
2022/03/18 00:11:35;;;;;;;5.22;3.25;;;7.20;99.90;;;;;;5053582;28;20171;-81
2022/03/18 00:14:03;;;;;;;7.95;4.18;;;7.20;99.90;;;;;;5053714;28;20179;-80
2022/03/18 00:16:29;;;;;;;11.32;3.53;;;7.30;99.90;;;;;;5053814;28;20179;-83
2022/03/18 00:18:55;;;;;;;7.43;4.47;;;7.30;99.90;;;;;;5053644;28;20635;-83
2022/03/18 00:21:21;;;;;;;9.18;4.18;;;7.20;99.90;;;;;;5053774;28;20167;-82
2022/03/18 00:23:47;;;;;;;7.78;4.15;;;7.30;99.90;;;;;;5053202;28;20171;-80
2022/03/18 00:26:13;;;;;;;6.07;3.83;;;7.30;99.90;;;;;;5053628;28;20187;-78
2022/03/18 00:28:39;;;;;;;7.88;4.28;;;7.30;99.90;;;;;;5057994;28;20250;-81
2022/03/18 00:31:08;;;;;;;6.53;4.07;;;6.80;99.90;;;;;;5069510;28;20166;-84
2022/03/18 00:33:34;;;;;;;8.43;4.60;;;6.70;99.90;;;;;;5062716;28;20239;-82
2022/03/18 00:35:59;;;;;;;11.25;4.68;;;6.80;99.90;;;;;;5060088;28;20222;-81
2022/03/18 00:38:25;;;;;;;15.00;4.53;;;6.60;99.90;;;;;;5053728;28;20225;-80
2022/03/18 00:40:51;;;;;;;4.90;3.65;;;6.70;99.90;;;;;;5053610;28;20209;-83
2022/03/18 00:43:17;;;;;;;11.70;4.38;;;6.50;99.90;;;;;;5057692;28;20560;-79
2022/03/18 00:45:43;;;;;;;6.50;4.03;;;6.50;99.90;;;;;;5061099;28;20242;-83
2022/03/18 00:53:37;;;;;;;9.32;4.32;;;6.50;99.90;;;;;;5054408;28;20254;-83
2022/03/18 00:56:04;;;;;;;4.45;3.60;;;6.60;99.90;;;;;;5057557;28;20215;-80
2022/03/18 00:58:29;;;;;;;14.57;4.10;;;6.70;99.90;;;;;;5055632;28;20163;-80
2022/03/18 01:00:55;;;;;;;10.88;4.90;;;6.50;99.90;;;;;;5039390;28;20198;-80
2022/03/18 01:03:21;;;;;;;14.07;4.35;;;6.40;99.90;;;;;;5060540;28;20175;-83
2022/03/18 01:05:47;;;;;;;12.23;4.28;;;6.30;99.90;;;;;;5065381;28;20588;-82
2022/03/18 01:08:12;;;;;;;7.72;4.05;;;6.20;99.90;;;;;;5032614;28;20171;-83
2022/03/18 01:10:40;;;;;;;7.55;4.18;;;6.20;99.90;;;;;;5065698;28;20179;-82
2022/03/18 01:13:05;;;;;;;6.03;4.43;;;6.10;99.90;;;;;;5043494;28;20265;-83
2022/03/18 01:15:31;;;;;;;6.93;4.10;;;6.10;99.90;;;;;;5060804;28;20191;-82
2022/03/18 01:17:57;;;;;;;8.27;5.32;;;6.20;99.90;;;;;;5064017;28;20167;-84
2022/03/18 01:20:22;;;;;;;6.60;3.55;;;6.10;99.90;;;;;;5068528;28;20242;-81
2022/03/18 01:22:48;;;;;;;5.25;3.75;;;6.10;99.90;;;;;;5051722;28;20198;-84
2022/03/18 01:25:14;;;;;;;12.88;4.75;;;6.00;99.90;;;;;;5066609;28;20274;-80
2022/03/18 01:27:40;;;;;;;7.80;4.53;;;6.00;99.90;;;;;;5045132;28;20189;-83
2022/03/18 01:30:06;;;;;;;9.90;3.97;;;6.00;99.90;;;;;;5064394;28;20171;-84
2022/03/18 01:32:33;;;;;;;5.95;4.10;;;6.00;99.90;;;;;;5060481;28;20171;-80
2022/03/18 01:35:00;;;;;;;6.63;4.68;;;6.00;99.90;;;;;;5056559;28;20191;-84
2022/03/18 01:37:26;;;;;;;8.65;4.18;;;5.90;99.90;;;;;;5067757;28;20175;-83
2022/03/18 01:39:52;;;;;;;13.05;4.57;;;6.10;99.90;;;;;;5050352;28;20238;-82
2022/03/18 01:42:18;;;;;;;10.57;4.45;;;6.10;99.90;;;;;;5053947;28;20201;-84
2022/03/18 01:44:47;;;;;;;10.02;3.10;;;6.00;99.90;;;;;;5055484;28;20202;-82
2022/03/18 01:47:14;;;;;;;13.57;4.30;;;5.90;99.90;;;;;;5069202;28;20210;-80
2022/03/18 01:49:40;;;;;;;12.70;4.15;;;5.90;99.90;;;;;;5069556;28;20167;-81
2022/03/18 01:52:08;;;;;;;10.10;3.72;;;5.80;99.90;;;;;;5054972;28;20171;-84
2022/03/18 01:54:44;;;;;;;14.13;4.93;;;5.70;99.90;;;;;;5055446;28;20175;-83
2022/03/18 01:57:10;;;;;;;15.25;3.92;;;5.70;99.90;;;;;;5069804;28;20186;-79
2022/03/18 01:59:36;;;;;;;9.88;4.10;;;5.50;99.90;;;;;;5064490;28;20195;-84
2022/03/18 02:02:02;;;;;;;8.95;3.55;;;5.50;99.90;;;;;;5063169;28;20171;-83
2022/03/18 02:04:27;;;;;;;8.40;3.75;;;5.70;99.90;;;;;;5062358;28;20210;-83
2022/03/18 02:06:54;;;;;;;3.65;2.90;;;5.90;99.90;;;;;;5062819;28;20206;-82
2022/03/18 02:09:20;;;;;;;11.70;4.90;;;5.80;99.90;;;;;;5061678;28;20636;-80
2022/03/18 02:11:46;;;;;;;6.20;3.40;;;5.80;99.90;;;;;;5061025;28;20175;-82
2022/03/18 02:14:12;;;;;;;9.52;3.70;;;5.60;99.90;;;;;;5059771;28;20183;-79
2022/03/18 02:16:39;;;;;;;6.32;3.50;;;5.50;99.90;;;;;;5061598;28;20183;-83
2022/03/18 02:19:07;;;;;;;10.73;3.38;;;5.70;99.90;;;;;;5070089;28;20193;-83
2022/03/18 02:21:37;;;;;;;14.32;3.92;;;5.80;99.90;;;;;;5069957;28;20195;-83
2022/03/18 02:24:04;;;;;;;4.60;3.13;;;5.70;99.90;;;;;;5070352;28;20229;-82
2022/03/18 02:26:29;;;;;;;6.45;3.63;;;5.70;99.90;;;;;;5052990;28;20199;-82
2022/03/18 02:28:58;;;;;;;7.28;3.42;;;5.70;99.90;;;;;;5070643;28;20183;-81
2022/03/18 02:31:30;;;;;;;7.45;3.60;;;5.80;99.90;;;;;;5055064;28;20214;-81
2022/03/18 02:33:55;;;;;;;16.17;3.95;;;5.70;99.90;;;;;;5070052;28;20170;-79
2022/03/18 02:36:21;;;;;;;4.72;4.20;;;5.70;99.90;;;;;;5064871;28;20167;-84
2022/03/18 02:38:47;;;;;;;6.30;3.72;;;5.60;99.90;;;;;;5064875;28;20221;-81
2022/03/18 02:41:13;;;;;;;13.73;3.53;;;5.40;99.90;;;;;;5045859;28;20175;-83
2022/03/18 02:43:40;;;;;;;6.30;3.53;;;5.30;99.90;;;;;;5046420;28;20182;-82
2022/03/18 02:46:06;;;;;;;4.68;3.78;;;5.40;99.90;;;;;;5058569;28;20210;-84
2022/03/18 02:48:31;;;;;;;8.30;4.45;;;5.40;99.90;;;;;;5038108;28;20197;-80
2022/03/18 02:50:57;;;;;;;9.15;3.95;;;5.40;99.90;;;;;;5055326;28;20250;-82
2022/03/18 02:53:23;;;;;;;7.93;3.78;;;5.50;99.90;;;;;;5055864;28;20179;-80
2022/03/18 02:55:48;;;;;;;5.55;3.25;;;5.30;99.90;;;;;;5037690;28;20198;-82
2022/03/18 02:58:14;;;;;;;8.70;4.72;;;5.30;99.90;;;;;;5037772;28;20178;-83
2022/03/18 03:00:40;;;;;;;8.52;4.43;;;5.40;99.90;;;;;;5055753;28;20771;-83
2022/03/18 03:03:05;;;;;;;8.88;4.03;;;5.50;99.90;;;;;;5055444;28;20163;-84
2022/03/18 03:08:15;;;;;;;8.18;4.15;;;5.30;99.90;;;;;;5055654;28;20178;-83
2022/03/18 03:10:42;;;;;;;5.63;3.88;;;5.20;99.90;;;;;;5055449;28;20170;-78
2022/03/18 03:13:10;;;;;;;6.28;4.68;;;5.20;99.90;;;;;;5037338;28;20211;-82
2022/03/18 03:15:38;;;;;;;5.75;4.00;;;5.10;99.90;;;;;;5055221;28;20163;-80
2022/03/18 03:18:04;;;;;;;12.55;4.75;;;5.10;99.90;;;;;;5054810;28;20163;-82
2022/03/18 03:20:30;;;;;;;6.57;5.00;;;5.00;99.90;;;;;;5055395;28;20170;-83
2022/03/18 03:22:57;;;;;;;11.40;4.32;;;4.90;99.90;;;;;;5056216;28;20251;-79
2022/03/18 03:25:23;;;;;;;5.97;4.13;;;5.00;99.90;;;;;;5043747;28;20218;-80
2022/03/18 03:27:53;;;;;;;4.15;3.55;;;5.00;99.90;;;;;;5042641;28;20344;-82
2022/03/18 03:30:20;;;;;;;4.88;3.85;;;5.20;99.90;;;;;;5060434;28;20167;-81
2022/03/18 03:32:46;;;;;;;13.57;5.22;;;5.20;99.90;;;;;;5065714;28;20181;-82
2022/03/18 03:35:12;;;;;;;8.90;5.13;;;5.40;99.90;;;;;;5063658;28;20195;-80
2022/03/18 03:37:38;;;;;;;10.20;5.28;;;5.30;99.90;;;;;;5058431;28;20640;-81
2022/03/18 03:40:05;;;;;;;6.00;4.22;;;5.40;99.90;;;;;;5059820;28;20170;-80
2022/03/18 03:42:31;;;;;;;7.88;4.63;;;5.30;99.90;;;;;;5043225;28;20554;-80
2022/03/18 03:44:58;;;;;;;11.43;4.68;;;5.30;99.90;;;;;;5059457;28;20214;-79
2022/03/18 03:47:24;;;;;;;10.10;5.30;;;5.50;99.90;;;;;;5055735;28;20191;-79
2022/03/18 03:49:50;;;;;;;9.57;4.60;;;5.40;99.90;;;;;;5057169;28;20210;-79
2022/03/18 03:52:16;;;;;;;11.65;4.47;;;5.30;99.90;;;;;;5061244;28;20168;-83
2022/03/18 03:54:42;;;;;;;6.63;4.07;;;5.30;99.90;;;;;;5041610;28;20617;-79
2022/03/18 03:57:08;;;;;;;7.40;4.65;;;5.30;99.90;;;;;;5056937;28;20195;-80
2022/03/18 03:59:34;;;;;;;8.82;5.45;;;5.40;99.90;;;;;;5058756;28;20213;-81
2022/03/18 04:02:02;;;;;;;10.60;5.68;;;5.60;99.90;;;;;;5061017;28;20190;-83
2022/03/18 04:04:28;;;;;;;11.70;4.65;;;5.70;99.90;;;;;;5062073;28;20202;-81
2022/03/18 04:06:54;;;;;;;6.03;4.05;;;5.50;99.90;;;;;;5051619;28;20194;-80
2022/03/18 04:09:20;;;;;;;11.93;5.20;;;5.50;99.90;;;;;;5068823;28;20170;-83
2022/03/18 04:11:46;;;;;;;13.38;4.47;;;5.40;99.90;;;;;;5061897;28;20194;-84
2022/03/18 04:14:11;;;;;;;6.65;4.70;;;5.50;99.90;;;;;;5060721;28;20183;-80
2022/03/18 04:16:37;;;;;;;10.77;5.05;;;5.50;99.90;;;;;;5058463;28;20186;-81
2022/03/18 04:19:03;;;;;;;10.40;5.07;;;5.60;99.90;;;;;;5041668;28;20194;-79
2022/03/18 04:21:29;;;;;;;8.18;4.65;;;5.30;99.90;;;;;;5058577;28;20178;-82
2022/03/18 04:23:56;;;;;;;8.98;5.38;;;5.20;99.90;;;;;;5058138;28;20163;-84
2022/03/18 04:26:22;;;;;;;16.67;5.85;;;5.30;99.90;;;;;;5057404;28;20202;-83
2022/03/18 04:28:48;;;;;;;11.75;5.80;;;5.30;99.90;;;;;;5039245;28;20164;-79
2022/03/18 04:31:13;;;;;;;7.88;4.88;;;5.30;99.90;;;;;;5059934;28;20168;-82
2022/03/18 04:33:39;;;;;;;11.30;6.45;;;5.10;99.90;;;;;;5058667;28;20164;-83
2022/03/18 04:36:05;;;;;;;11.55;6.63;;;5.20;99.90;;;;;;5057649;28;20541;-82
2022/03/18 04:38:30;;;;;;;11.25;5.55;;;5.00;99.90;;;;;;5056611;28;20229;-80
2022/03/18 04:40:57;;;;;;;6.88;4.45;;;5.10;99.90;;;;;;5059176;28;20242;-83
2022/03/18 04:43:24;;;;;;;11.77;6.43;;;5.10;99.90;;;;;;5056429;28;20762;-81
2022/03/18 04:45:49;;;;;;;8.73;4.93;;;4.90;99.90;;;;;;5041657;28;20223;-80
2022/03/18 04:48:15;;;;;;;11.00;6.60;;;4.90;99.90;;;;;;5041525;28;20169;-82
2022/03/18 04:50:41;;;;;;;8.95;6.20;;;5.00;99.90;;;;;;5062349;28;20198;-84
2022/03/18 04:53:06;;;;;;;16.80;5.50;;;5.10;99.90;;;;;;5057585;28;20170;-83
2022/03/18 04:55:32;;;;;;;5.68;4.70;;;5.10;99.90;;;;;;5040889;28;20175;-84
2022/03/18 04:57:57;;;;;;;13.35;5.20;;;5.00;99.90;;;;;;5053646;28;20173;-80
2022/03/18 05:00:24;;;;;;;7.60;4.90;;;4.90;99.90;;;;;;5053746;28;20221;-79
2022/03/18 05:02:55;;;;;;;11.90;6.22;;;5.00;99.90;;;;;;5035568;28;20639;-80
2022/03/18 05:05:21;;;;;;;7.38;4.93;;;5.10;99.90;;;;;;5052715;28;20210;-80
2022/03/18 05:07:52;;;;;;;9.18;4.43;;;5.10;99.90;;;;;;5053006;28;20191;-82
2022/03/18 05:10:18;;;;;;;15.57;5.60;;;5.20;99.90;;;;;;5053283;28;20237;-79
2022/03/18 05:12:45;;;;;;;6.05;5.10;;;5.10;99.90;;;;;;5053663;28;20215;-81
2022/03/18 05:15:11;;;;;;;7.68;5.22;;;5.20;99.90;;;;;;5053069;28;20168;-81
2022/03/18 05:17:40;;;;;;;13.75;6.03;;;5.30;99.90;;;;;;5055060;28;20713;-81
2022/03/18 05:20:12;;;;;;;9.80;6.03;;;5.40;99.90;;;;;;5059919;28;20193;-83
2022/03/18 05:22:38;;;;;;;7.43;6.03;;;5.50;99.90;;;;;;5048961;28;20163;-82
2022/03/18 05:25:04;;;;;;;12.45;5.75;;;5.60;99.90;;;;;;5048477;28;20264;-81
2022/03/18 05:27:30;;;;;;;10.88;5.43;;;5.60;99.90;;;;;;5043027;28;20191;-82
2022/03/18 05:29:55;;;;;;;5.35;4.72;;;5.60;99.90;;;;;;5060056;28;20168;-83
2022/03/18 05:32:21;;;;;;;11.75;5.40;;;5.50;99.90;;;;;;5059551;28;20170;-80
2022/03/18 05:34:47;;;;;;;25.33;7.30;;;5.40;99.90;;;;;;5059022;28;20164;-84
2022/03/18 05:37:13;;;;;;;10.25;5.72;;;5.40;99.90;;;;;;5058300;28;20201;-79
2022/03/18 05:39:39;;;;;;;13.95;5.82;;;5.40;99.90;;;;;;5062865;28;20178;-84
2022/03/18 05:42:05;;;;;;;16.05;6.00;;;5.30;99.90;;;;;;5059727;28;20620;-81
2022/03/18 05:44:31;;;;;;;35.58;6.57;;;5.40;99.90;;;;;;5059935;28;20207;-82
2022/03/18 05:46:57;;;;;;;12.48;7.18;;;5.50;99.90;;;;;;5058499;28;20663;-83
2022/03/18 05:49:23;;;;;;;8.32;6.72;;;5.50;99.90;;;;;;5057535;28;20231;-80
2022/03/18 05:51:51;;;;;;;18.88;7.80;;;5.60;99.90;;;;;;5056958;28;20170;-82
2022/03/18 05:54:17;;;;;;;8.73;7.00;;;5.80;99.90;;;;;;5040744;28;20192;-84
2022/03/18 05:56:55;;;;;;;17.17;7.18;;;5.80;99.90;;;;;;5041110;28;20195;-80
2022/03/18 05:59:27;;;;;;;12.30;6.68;;;5.80;99.90;;;;;;5039867;28;20171;-83
2022/03/18 06:01:54;;;;;;;10.63;6.47;;;5.80;99.90;;;;;;5034837;28;20228;-82
2022/03/18 06:04:20;;;;;;;16.42;7.22;;;5.90;99.90;;;;;;5052506;28;20293;-81
2022/03/18 06:06:47;;;;;;;13.50;8.23;;;6.00;99.90;;;;;;5052205;28;20191;-83
2022/03/18 06:12:02;;;;;;;13.57;8.88;;;6.20;99.90;;;;;;5053015;28;20671;-84
2022/03/18 06:14:30;;;;;;;19.85;8.70;;;6.10;99.90;;;;;;5052387;28;20175;-84
2022/03/18 06:17:01;;;;;;;12.75;7.90;;;6.20;99.90;;;;;;5052318;28;20270;-83
2022/03/18 06:19:29;;;;;;;13.60;8.20;;;6.00;99.90;;;;;;5052210;28;20175;-79
2022/03/18 06:21:55;;;;;;;22.83;8.00;;;5.80;99.90;;;;;;5054054;28;20195;-83
2022/03/18 06:24:22;;;;;;;13.25;8.02;;;5.90;99.90;;;;;;5056069;28;20256;-83
2022/03/18 06:26:49;;;;;;;9.75;7.65;;;5.90;99.90;;;;;;5056025;28;20198;-82
2022/03/18 06:29:15;;;;;;;11.40;8.55;;;6.00;99.90;;;;;;5055995;28;20159;-84
2022/03/18 06:31:41;;;;;;;20.10;8.38;;;6.00;99.90;;;;;;5056404;28;20163;-82
2022/03/18 06:34:09;;;;;;;19.33;9.55;;;6.00;99.90;;;;;;5056438;28;20174;-83
2022/03/18 06:36:34;;;;;;;18.50;8.90;;;6.10;99.90;;;;;;5056612;28;20183;-81
2022/03/18 06:39:00;;;;;;;28.85;9.35;;;6.20;99.90;;;;;;5038775;28;20187;-79
2022/03/18 06:41:26;;;;;;;20.05;10.38;;;6.40;99.90;;;;;;5057889;28;20258;-82
2022/03/18 06:43:53;;;;;;;14.90;9.32;;;6.50;99.90;;;;;;5071476;28;20167;-85
2022/03/18 06:46:19;;;;;;;22.92;9.38;;;6.40;99.90;;;;;;5072787;28;20203;-80
2022/03/18 06:48:45;;;;;;;17.42;9.63;;;6.30;99.90;;;;;;5075982;28;20182;-81
2022/03/18 06:51:11;;;;;;;15.93;9.63;;;6.40;99.90;;;;;;5070301;28;20159;-78
2022/03/18 06:53:37;;;;;;;14.90;7.88;;;6.50;99.90;;;;;;5060953;28;20159;-78
2022/03/18 06:56:06;;;;;;;9.45;8.52;;;6.50;99.90;;;;;;5056706;28;20207;-80
2022/03/18 06:58:33;;;;;;;20.10;9.60;;;6.40;99.90;;;;;;5055675;28;20175;-82
2022/03/18 07:00:59;;;;;;;20.63;9.07;;;6.50;99.90;;;;;;5055953;28;20212;-81
2022/03/18 07:03:25;;;;;;;20.95;9.68;;;6.60;99.90;;;;;;5055671;28;20179;-84
2022/03/18 07:05:51;;;;;;;17.08;9.35;;;6.80;99.90;;;;;;5054979;28;20211;-84
2022/03/18 07:08:16;;;;;;;17.75;9.20;;;6.90;99.90;;;;;;5054780;28;20518;-80
2022/03/18 07:10:42;;;;;;;21.85;9.40;;;6.80;99.90;;;;;;5054838;28;20476;-83
2022/03/18 07:13:08;;;;;;;22.48;9.05;;;6.80;99.90;;;;;;5054715;28;20189;-80
2022/03/18 07:15:33;;;;;;;17.10;9.20;;;6.80;99.90;;;;;;5055014;28;20167;-83
2022/03/18 07:17:59;;;;;;;17.65;8.88;;;6.80;99.90;;;;;;5055172;28;20163;-84
2022/03/18 07:20:26;;;;;;;16.65;8.73;;;6.80;99.90;;;;;;5055214;28;20167;-77
2022/03/18 07:22:59;;;;;;;15.23;8.77;;;6.90;99.90;;;;;;5054730;28;20168;-80
2022/03/18 07:25:24;;;;;;;19.95;8.88;;;6.90;99.90;;;;;;5054824;28;20566;-78
2022/03/18 07:27:50;;;;;;;15.98;9.15;;;6.70;99.90;;;;;;5054924;28;20183;-78
2022/03/18 07:30:16;;;;;;;23.05;8.57;;;6.70;99.90;;;;;;5054726;28;20258;-81
2022/03/18 07:32:41;;;;;;;13.32;8.93;;;6.60;99.90;;;;;;5053617;28;20629;-79
2022/03/18 07:35:10;;;;;;;18.15;9.07;;;6.60;99.90;;;;;;5054784;28;20167;-83
2022/03/18 07:37:36;;;;;;;19.85;8.45;;;6.80;99.90;;;;;;5054274;28;20207;-85
2022/03/18 07:40:02;;;;;;;10.88;7.72;;;7.00;99.90;;;;;;5054365;28;20187;-78
2022/03/18 07:42:38;;;;;;;15.95;8.38;;;6.90;99.90;;;;;;5053755;28;20252;-85
2022/03/18 07:45:04;;;;;;;21.27;8.15;;;7.20;99.90;;;;;;5053764;28;20297;-78
2022/03/18 07:47:30;;;;;;;17.67;8.23;;;7.20;99.90;;;;;;5053688;28;20223;-84
2022/03/18 07:49:55;;;;;;;13.57;7.45;;;7.30;99.90;;;;;;5054361;28;20592;-77
2022/03/18 07:52:21;;;;;;;17.58;7.53;;;7.30;99.90;;;;;;5054411;28;20171;-83
2022/03/18 07:54:46;;;;;;;25.75;8.32;;;7.50;99.90;;;;;;5053992;28;20221;-83
2022/03/18 07:57:13;;;;;;;21.48;7.43;;;7.70;99.90;;;;;;5054660;28;20237;-78
2022/03/18 07:59:38;;;;;;;9.60;5.88;;;7.80;99.90;;;;;;5054499;28;20155;-78
2022/03/18 08:02:04;;;;;;;9.75;5.55;;;7.90;99.90;;;;;;5054106;28;20170;-85
2022/03/18 08:04:29;;;;;;;24.70;7.43;;;8.00;99.90;;;;;;5053653;28;20202;-80
2022/03/18 08:06:55;;;;;;;19.58;5.40;;;8.30;99.90;;;;;;5053329;28;20277;-82
2022/03/18 08:09:21;;;;;;;13.38;4.65;;;8.40;99.90;;;;;;5036565;28;20228;-79
2022/03/18 08:11:46;;;;;;;14.60;4.45;;;8.40;99.90;;;;;;5053734;28;20167;-80
2022/03/18 08:14:12;;;;;;;7.07;4.32;;;8.20;99.90;;;;;;5052825;28;20210;-79
2022/03/18 08:16:37;;;;;;;5.57;3.85;;;8.40;99.90;;;;;;5052498;28;20202;-79
2022/03/18 08:19:03;;;;;;;11.15;4.70;;;8.50;99.90;;;;;;5053332;28;20197;-79
2022/03/18 08:21:32;;;;;;;11.30;4.72;;;8.50;99.90;;;;;;5053844;28;20181;-80
2022/03/18 08:23:58;;;;;;;10.43;3.53;;;8.50;99.90;;;;;;5053601;28;20175;-83
2022/03/18 08:26:23;;;;;;;8.15;4.13;;;8.60;99.90;;;;;;5053316;28;20276;-83
2022/03/18 08:28:49;;;;;;;8.32;4.35;;;8.80;99.90;;;;;;5053413;28;20164;-79
2022/03/18 08:31:15;;;;;;;11.35;4.45;;;8.90;99.90;;;;;;5053269;28;20195;-82
2022/03/18 08:33:40;;;;;;;14.18;3.85;;;8.80;99.90;;;;;;5053147;28;20164;-86
2022/03/18 08:36:06;;;;;;;16.42;4.30;;;8.80;99.90;;;;;;5053611;28;20225;-82
2022/03/18 08:38:32;;;;;;;10.18;4.72;;;8.70;99.90;;;;;;5053812;28;20171;-83
2022/03/18 08:40:57;;;;;;;9.07;4.70;;;8.80;99.90;;;;;;5053381;28;20178;-79
2022/03/18 08:43:23;;;;;;;18.60;4.57;;;8.90;99.90;;;;;;5053054;28;20167;-79
2022/03/18 08:45:50;;;;;;;14.45;4.60;;;8.90;99.90;;;;;;5052842;28;20222;-82
2022/03/18 08:48:16;;;;;;;5.28;3.92;;;9.10;99.90;;;;;;5053897;28;20199;-85
2022/03/18 08:50:42;;;;;;;11.57;3.95;;;9.20;99.90;;;;;;5054687;28;20206;-80
2022/03/18 08:53:10;;;;;;;9.88;3.67;;;9.20;99.90;;;;;;5053066;28;20178;-84
2022/03/18 08:55:37;;;;;;;5.72;3.40;;;9.20;99.90;;;;;;5052823;28;20171;-80
2022/03/18 08:58:04;;;;;;;13.70;4.00;;;9.40;99.90;;;;;;5052936;28;20241;-86
2022/03/18 09:00:30;;;;;;;9.32;3.42;;;9.50;99.90;;;;;;5049064;28;20171;-85
2022/03/18 09:02:56;;;;;;;11.85;3.67;;;9.70;99.90;;;;;;5052062;28;20171;-84
2022/03/18 09:05:21;;;;;;;11.02;3.20;;;9.90;99.90;;;;;;5052621;28;20199;-82
2022/03/18 09:07:47;;;;;;;12.27;3.83;;;9.90;99.90;;;;;;5052293;28;20698;-80
2022/03/18 09:10:13;;;;;;;14.32;3.88;;;9.90;99.90;;;;;;5033662;28;20217;-81
2022/03/18 09:12:52;;;;;;;10.02;3.17;;;9.90;99.90;;;;;;5034244;28;20179;-81
2022/03/18 09:15:18;;;;;;;6.25;2.63;;;9.90;99.90;;;;;;5033256;28;20252;-80
2022/03/18 09:17:43;;;;;;;9.48;3.70;;;10.00;99.90;;;;;;5032247;28;20282;-81
2022/03/18 09:20:09;;;;;;;11.43;3.25;;;10.10;99.90;;;;;;5033821;28;20171;-79
2022/03/18 09:22:35;;;;;;;9.52;4.75;;;10.30;99.90;;;;;;5045693;28;20183;-80
2022/03/18 09:25:01;;;;;;;7.35;3.10;;;10.40;99.90;;;;;;5052244;28;20219;-81
2022/03/18 09:27:27;;;;;;;12.57;4.20;;;10.50;99.90;;;;;;5055902;28;20191;-81
2022/03/18 09:29:52;;;;;;;7.05;3.55;;;10.70;99.90;;;;;;5034763;28;20179;-81
2022/03/18 09:32:18;;;;;;;8.32;2.95;;;10.80;99.90;;;;;;5052894;28;20218;-84
2022/03/18 09:34:44;;;;;;;12.93;3.70;;;10.90;99.90;;;;;;5051308;28;20676;-84
2022/03/18 09:37:09;;;;;;;9.43;2.97;;;10.90;99.90;;;;;;5050092;28;20191;-81
2022/03/18 09:39:35;;;;;;;11.10;3.53;;;11.00;99.90;;;;;;5051110;28;20178;-81
2022/03/18 09:42:01;;;;;;;9.45;2.70;;;10.90;99.90;;;;;;5052498;28;20737;-79
2022/03/18 09:44:37;;;;;;;3.97;2.30;;;11.10;99.90;;;;;;5050468;28;20211;-78
2022/03/18 09:47:04;;;;;;;8.85;2.50;;;11.10;99.90;;;;;;5052403;28;20202;-81
2022/03/18 09:49:30;;;;;;;4.97;2.90;;;11.10;99.90;;;;;;5050705;28;20156;-81
2022/03/18 09:51:56;;;;;;;3.20;2.88;;;11.20;99.90;;;;;;5050802;28;20254;-81
2022/03/18 09:54:22;;;;;;;7.93;3.47;;;11.40;99.90;;;;;;5050348;28;20416;-82
2022/03/18 09:56:48;;;;;;;3.85;2.58;;;11.50;99.90;;;;;;5051755;28;20671;-80
2022/03/18 09:59:15;;;;;;;5.60;2.75;;;11.50;99.90;;;;;;5055933;28;20249;-80
2022/03/18 10:01:41;;;;;;;5.90;3.17;;;11.50;99.90;;;;;;5055960;28;20171;-83
2022/03/18 10:04:10;;;;;;;4.18;2.65;;;11.40;99.90;;;;;;5055765;28;20164;-82
2022/03/18 10:06:36;;;;;;;12.45;2.90;;;11.50;99.90;;;;;;5054063;28;20206;-83
2022/03/18 10:09:04;;;;;;;14.00;2.72;;;11.50;99.90;;;;;;5054630;28;20175;-82
2022/03/18 10:11:31;;;;;;;5.95;2.72;;;11.70;99.90;;;;;;5055717;28;20648;-83
2022/03/18 10:14:01;;;;;;;11.45;3.08;;;11.90;99.90;;;;;;5054099;28;20229;-83
2022/03/18 10:16:40;;;;;;;6.50;2.65;;;11.80;99.90;;;;;;5055270;28;20278;-78
2022/03/18 10:19:12;;;;;;;4.57;2.30;;;11.80;99.90;;;;;;5055524;28;20646;-83
2022/03/18 10:21:59;;;;;;;7.82;2.53;;;11.90;99.90;;;;;;5036011;28;20172;-83
2022/03/18 10:24:38;;;;;;;4.22;2.13;;;12.20;99.90;;;;;;5037405;28;20679;-80
2022/03/18 10:27:19;;;;;;;5.28;2.10;;;12.10;99.90;;;;;;5052382;28;20198;-79
2022/03/18 10:29:53;;;;;;;8.02;2.35;;;12.10;99.90;;;;;;5047760;28;20171;-78
2022/03/18 10:32:20;;;;;;;12.43;2.08;;;12.30;99.90;;;;;;5054215;28;20178;-76
2022/03/18 10:37:49;;;;;;;6.45;2.08;;;12.20;99.90;;;;;;5054356;28;20205;-79
2022/03/18 10:40:36;;;;;;;18.90;2.47;;;12.20;99.90;;;;;;5054279;28;20178;-80
2022/03/18 10:43:06;;;;;;;7.97;2.83;;;12.30;99.90;;;;;;5053325;28;20191;-82
2022/03/18 10:45:32;;;;;;;9.77;2.42;;;12.30;99.90;;;;;;5054604;28;20206;-79
2022/03/18 10:48:18;;;;;;;10.20;4.00;;;12.40;99.90;;;;;;5054539;28;20171;-80
2022/03/18 10:50:45;;;;;;;8.27;4.32;;;12.50;99.90;;;;;;5053353;28;20215;-78
2022/03/18 10:53:11;;;;;;;5.03;2.95;;;12.60;99.90;;;;;;5054175;28;20268;-79
2022/03/18 10:55:40;;;;;;;8.43;4.47;;;12.50;99.90;;;;;;5054018;28;20726;-82
2022/03/18 10:58:05;;;;;;;4.78;2.78;;;12.60;99.90;;;;;;5053827;28;20175;-85
2022/03/18 11:00:33;;;;;;;11.95;3.25;;;12.80;99.90;;;;;;5054207;28;20174;-84
2022/03/18 11:03:02;;;;;;;15.75;2.92;;;12.70;99.90;;;;;;5054203;28;20213;-77
2022/03/18 11:05:33;;;;;;;5.97;2.88;;;12.70;99.90;;;;;;5055620;28;20214;-81
2022/03/18 11:08:05;;;;;;;7.97;2.78;;;12.70;99.90;;;;;;5059260;28;20174;-83
2022/03/18 11:13:20;;;;;;;11.13;2.08;;;12.70;99.90;;;;;;5068144;28;20193;-83
2022/03/18 11:15:49;;;;;;;6.72;1.90;;;12.80;99.90;;;;;;5071533;28;20190;-81
2022/03/18 11:18:14;;;;;;;8.38;2.42;;;12.80;99.90;;;;;;5051084;28;20179;-82
2022/03/18 11:20:43;;;;;;;26.92;3.05;;;12.80;99.90;;;;;;5066041;28;20163;-86
2022/03/18 11:23:16;;;;;;;7.28;2.42;;;12.80;99.90;;;;;;5059968;28;20162;-82
2022/03/18 11:25:44;;;;;;;7.85;2.40;;;12.90;99.90;;;;;;5058681;28;20203;-82
2022/03/18 11:28:15;;;;;;;3.88;1.90;;;13.10;99.90;;;;;;5053237;28;20163;-78
2022/03/18 11:30:41;;;;;;;2.90;2.00;;;13.20;99.90;;;;;;5054182;28;20258;-79
2022/03/18 11:33:10;;;;;;;12.18;2.42;;;13.20;99.90;;;;;;5036355;28;20529;-84
2022/03/18 11:35:48;;;;;;;13.02;2.13;;;13.10;99.90;;;;;;5054413;28;20171;-81
2022/03/18 11:38:23;;;;;;;20.05;2.25;;;13.10;99.90;;;;;;5054650;28;20559;-83
2022/03/18 11:40:53;;;;;;;5.75;1.85;;;13.10;99.90;;;;;;5054751;28;20539;-83
2022/03/18 11:43:33;;;;;;;2.42;1.90;;;13.20;99.90;;;;;;5054383;28;20163;-83
2022/03/18 11:46:16;;;;;;;6.63;2.15;;;13.30;99.90;;;;;;5054491;28;20199;-85
2022/03/18 11:48:52;;;;;;;8.50;2.30;;;13.50;99.90;;;;;;5054305;28;20631;-80
2022/03/18 11:51:57;;;;;;;4.18;1.90;;;13.40;99.90;;;;;;5036948;28;20212;-78
2022/03/18 11:54:27;;;;;;;6.53;2.80;;;13.40;99.90;;;;;;4978178;28;20175;-80
2022/03/18 11:56:55;;;;;;;4.95;1.63;;;13.40;99.90;;;;;;5054212;28;20373;-86
2022/03/18 11:59:29;;;;;;;5.18;2.30;;;13.30;99.90;;;;;;5053879;28;20171;-84
2022/03/18 12:02:02;;;;;;;2.95;1.92;;;13.30;99.90;;;;;;5036458;28;20261;-78
2022/03/18 12:04:34;;;;;;;3.88;2.50;;;13.30;99.90;;;;;;5053374;28;20191;-85
2022/03/18 12:07:13;;;;;;;2.30;1.80;;;13.40;99.90;;;;;;5053601;28;20199;-80
2022/03/18 12:09:57;;;;;;;7.63;2.08;;;13.40;99.90;;;;;;5053985;28;20246;-86
2022/03/18 12:12:36;;;;;;;4.28;2.45;;;13.60;99.90;;;;;;5053381;28;20170;-79
2022/03/18 12:15:05;;;;;;;9.07;2.40;;;13.70;99.90;;;;;;5053398;28;20163;-81
2022/03/18 12:17:42;;;;;;;9.20;3.33;;;13.70;99.90;;;;;;5052975;28;20194;-79
2022/03/18 12:20:10;;;;;;;4.18;2.00;;;13.80;99.90;;;;;;5052891;28;20178;-85
2022/03/18 12:22:38;;;;;;;8.25;3.20;;;13.90;99.90;;;;;;5035867;28;20261;-81
2022/03/18 12:25:05;;;;;;;8.10;3.42;;;14.00;99.90;;;;;;5054639;28;20211;-78
2022/03/18 12:27:36;;;;;;;4.40;2.22;;;14.00;99.90;;;;;;5053890;28;20196;-81
2022/03/18 12:30:04;;;;;;;5.13;1.90;;;14.10;99.90;;;;;;5053866;28;20722;-79
2022/03/18 12:32:30;;;;;;;3.35;2.00;;;14.00;99.90;;;;;;5053342;28;20156;-79
2022/03/18 12:34:57;;;;;;;14.40;2.47;;;13.90;99.90;;;;;;5053486;28;20255;-80
2022/03/18 12:37:32;;;;;;;6.03;2.10;;;13.80;99.90;;;;;;5035430;28;20191;-81
2022/03/18 12:40:08;;;;;;;3.58;1.70;;;13.90;99.90;;;;;;5053244;28;20249;-81
2022/03/18 12:42:47;;;;;;;7.93;2.08;;;14.00;99.90;;;;;;5052931;28;20198;-82
2022/03/18 12:45:22;;;;;;;7.97;1.83;;;14.00;99.90;;;;;;5053185;28;20300;-80
2022/03/18 12:47:50;;;;;;;10.80;1.98;;;14.00;99.90;;;;;;5052852;28;20579;-84
2022/03/18 12:50:16;;;;;;;8.15;1.60;;;14.00;99.90;;;;;;5053305;28;20159;-83
2022/03/18 12:52:45;;;;;;;3.45;1.70;;;14.10;99.90;;;;;;5053182;28;20266;-84
2022/03/18 12:55:17;;;;;;;6.15;1.98;;;14.00;99.90;;;;;;5034629;28;20181;-79
2022/03/18 12:57:42;;;;;;;4.53;2.15;;;14.10;99.90;;;;;;5035175;28;20191;-79
2022/03/18 13:00:11;;;;;;;15.43;1.80;;;14.10;99.90;;;;;;5052970;28;20185;-85
2022/03/18 13:02:37;;;;;;;6.15;2.22;;;14.20;99.90;;;;;;5052338;28;20588;-81
2022/03/18 13:05:07;;;;;;;13.38;2.55;;;14.20;99.90;;;;;;5052734;28;20226;-78
2022/03/18 13:07:33;;;;;;;6.80;1.73;;;14.30;99.90;;;;;;5052903;28;20191;-79
2022/03/18 13:09:59;;;;;;;9.57;2.03;;;14.40;99.90;;;;;;5052732;28;20186;-79